Time;durP1;ratioP1;P1;durP2;ratioP2;P2;SDS_P1;SDS_P2;PMS_P1;PMS_P2;Temp;Humidity;BMP_temperature;BMP_pressure;BME280_temperature;BME280_humidity;BME280_pressure;Samples;Min_cycle;Max_cycle;Signal;HPM_P1;HPM_P2
2022/11/27 00:00:14;;;;;;;0.52;0.10;;;-1.30;99.90;;;;;;20154099;23;20111;-52
2022/11/27 00:10:16;;;;;;;1.00;0.20;;;-1.20;99.90;;;;;;20256609;23;20129;-56
2022/11/27 00:20:19;;;;;;;0.63;0.20;;;-1.30;99.90;;;;;;20249631;23;20377;-54
2022/11/27 00:30:22;;;;;;;0.82;0.20;;;-1.30;99.90;;;;;;20174195;23;2122810;-54
2022/11/27 00:40:24;;;;;;;0.20;0.10;;;-1.30;99.90;;;;;;20866345;23;20082;-58
2022/11/27 00:50:30;;;;;;;1.17;0.10;;;-1.50;99.90;;;;;;20116215;24;20050;-52
2022/11/27 01:00:45;;;;;;;0.40;0.25;;;-1.20;99.90;;;;;;20195977;23;20058;-54
2022/11/27 01:10:52;;;;;;;0.57;0.20;;;-1.40;99.90;;;;;;20261055;23;20054;-57
2022/11/27 01:20:55;;;;;;;0.50;0.20;;;-1.50;99.90;;;;;;20241718;23;20364;-55
2022/11/27 01:31:03;;;;;;;1.30;0.30;;;-1.60;99.90;;;;;;20230154;23;20398;-56
2022/11/27 01:41:16;;;;;;;1.33;0.40;;;-1.70;99.90;;;;;;20243558;23;20038;-55
2022/11/27 01:51:25;;;;;;;1.13;0.40;;;-1.30;99.90;;;;;;20198893;23;20086;31
2022/11/27 02:01:27;;;;;;;1.95;0.30;;;-1.10;99.90;;;;;;20143703;23;20135;-57
2022/11/27 02:12:23;;;;;;;1.38;0.40;;;-1.50;99.90;;;;;;20228381;23;20561;-53
2022/11/27 02:22:46;;;;;;;1.40;0.30;;;-1.90;99.90;;;;;;20202441;23;20105;-56
2022/11/27 02:33:13;;;;;;;1.33;0.32;;;-2.10;99.90;;;;;;20155129;24;20122;-56
2022/11/27 02:43:21;;;;;;;0.95;0.43;;;-1.90;99.90;;;;;;20044122;24;20122;-56
2022/11/27 02:53:29;;;;;;;2.40;0.35;;;-2.10;99.90;;;;;;20251359;23;20113;-54
2022/11/27 03:03:42;;;;;;;1.92;0.30;;;-1.90;99.90;;;;;;20257379;23;20069;-49
2022/11/27 03:13:49;;;;;;;2.75;0.30;;;-2.10;99.90;;;;;;20238440;23;20094;-57
2022/11/27 03:23:52;;;;;;;1.25;0.30;;;-2.20;99.90;;;;;;21024731;23;20058;-55
2022/11/27 03:33:56;;;;;;;1.73;0.20;;;-2.20;99.90;;;;;;20267793;23;20053;-66
2022/11/27 03:44:17;;;;;;;1.75;0.20;;;-2.20;99.90;;;;;;20242756;23;20066;-54
2022/11/27 03:54:27;;;;;;;;;;;-2.20;99.90;;;;;;20249885;23;20117;-49
2022/11/27 04:04:29;;;;;;;1.10;0.38;;;-2.10;99.90;;;;;;20280875;23;20298;-54
2022/11/27 04:14:32;;;;;;;0.60;0.20;;;-2.10;99.90;;;;;;20257429;23;20118;-57
2022/11/27 04:24:34;;;;;;;1.42;0.30;;;-2.10;99.90;;;;;;20247061;23;20122;-53
2022/11/27 04:34:37;;;;;;;0.90;0.25;;;-2.20;99.90;;;;;;20242217;23;20042;-57
2022/11/27 04:44:40;;;;;;;1.83;0.30;;;-2.20;99.90;;;;;;20191436;23;20061;-52
2022/11/27 04:55:03;;;;;;;0.75;0.20;;;-2.10;99.90;;;;;;20249171;23;20109;-56
2022/11/27 05:05:06;;;;;;;1.23;0.30;;;-2.20;99.90;;;;;;20270233;23;20054;-56
2022/11/27 05:15:09;;;;;;;0.57;0.30;;;-2.20;99.90;;;;;;20234112;23;20106;-55
2022/11/27 05:25:11;;;;;;;1.15;0.38;;;-2.30;99.90;;;;;;20236880;23;20424;-55
2022/11/27 05:35:14;;;;;;;1.35;0.55;;;-2.30;99.90;;;;;;20226913;23;20042;-56
2022/11/27 05:45:16;;;;;;;0.88;0.35;;;-2.30;99.90;;;;;;20220625;23;20121;-55
2022/11/27 05:55:35;;;;;;;1.60;0.60;;;-2.20;99.90;;;;;;20227089;23;20054;-54
2022/11/27 06:05:38;;;;;;;1.25;0.60;;;-2.40;99.90;;;;;;20248148;23;20089;-55
2022/11/27 06:15:41;;;;;;;5.20;1.08;;;-2.10;99.90;;;;;;20223336;23;20122;-51
2022/11/27 06:25:44;;;;;;;2.10;1.00;;;-2.20;99.90;;;;;;20207868;23;20054;-57
2022/11/27 06:35:47;;;;;;;5.32;1.58;;;-2.30;99.90;;;;;;20251156;23;20113;-60
2022/11/27 06:56:15;;;;;;;3.28;1.45;;;-2.40;99.90;;;;;;20198399;23;20114;-53
2022/11/27 07:06:23;;;;;;;2.90;1.55;;;-2.30;99.90;;;;;;20219697;23;20057;-57
2022/11/27 07:16:26;;;;;;;2.50;1.25;;;-2.00;99.90;;;;;;20241226;23;20061;-57
2022/11/27 07:26:29;;;;;;;1.83;0.88;;;-1.90;99.90;;;;;;20251680;23;20091;-55
2022/11/27 07:36:32;;;;;;;4.35;1.05;;;-1.70;99.90;;;;;;20216593;23;20118;-54
2022/11/27 07:47:07;;;;;;;0.80;0.60;;;-1.00;99.90;;;;;;20197140;23;20057;-56
2022/11/27 07:57:16;;;;;;;1.17;0.70;;;0.00;99.90;;;;;;20142901;23;20057;-52
2022/11/27 08:07:18;;;;;;;2.60;0.88;;;0.80;99.90;;;;;;20211353;23;20054;-53
2022/11/27 08:17:21;;;;;;;3.45;0.70;;;1.50;99.90;;;;;;20255057;23;20125;-57
2022/11/27 08:27:23;;;;;;;0.90;0.50;;;2.10;99.90;;;;;;20245672;23;20124;-54
2022/11/27 08:37:26;;;;;;;1.15;0.52;;;2.90;99.90;;;;;;20259710;23;20526;-58
2022/11/27 08:47:30;;;;;;;3.50;0.80;;;3.60;99.90;;;;;;20235106;23;20061;-54
2022/11/27 08:57:33;;;;;;;1.98;0.70;;;4.50;99.90;;;;;;20224688;23;20116;-56
2022/11/27 09:07:35;;;;;;;1.58;0.70;;;5.20;99.90;;;;;;20268786;23;20106;-58
2022/11/27 09:17:38;;;;;;;2.10;0.70;;;5.80;99.90;;;;;;20245875;23;20122;-57
2022/11/27 09:27:40;;;;;;;2.08;0.70;;;6.20;99.00;;;;;;20174394;23;1273792;-58
2022/11/27 09:37:43;;;;;;;1.50;0.90;;;6.10;97.50;;;;;;20253588;23;20053;-57
2022/11/27 09:48:08;;;;;;;1.73;0.90;;;6.40;96.90;;;;;;20195609;23;20130;-56
2022/11/27 09:58:35;;;;;;;2.70;0.82;;;6.60;96.10;;;;;;20168453;23;20113;-59
2022/11/27 10:09:03;;;;;;;1.55;0.85;;;7.00;96.00;;;;;;20124656;23;20058;-54
2022/11/27 10:19:29;;;;;;;2.65;0.77;;;7.40;94.60;;;;;;20116130;23;20514;-58
2022/11/27 10:29:58;;;;;;;1.58;0.70;;;7.70;94.00;;;;;;20100955;23;20122;-54
2022/11/27 10:40:26;;;;;;;3.28;0.82;;;7.70;93.30;;;;;;20157049;23;20478;-58
2022/11/27 10:50:28;;;;;;;1.27;0.85;;;7.80;93.60;;;;;;20160393;23;20057;-61
2022/11/27 11:00:31;;;;;;;1.25;0.77;;;8.20;93.30;;;;;;20270705;23;20447;-58
2022/11/27 11:10:53;;;;;;;1.42;0.77;;;8.10;94.50;;;;;;20225466;23;20346;-61
2022/11/27 11:21:06;;;;;;;1.23;0.70;;;8.20;95.40;;;;;;20226564;23;20065;-61
2022/11/27 11:31:13;;;;;;;2.80;0.95;;;8.40;94.50;;;;;;20226361;23;20118;-58
2022/11/27 11:41:17;;;;;;;1.63;1.00;;;8.20;95.40;;;;;;20231404;23;20120;-58
2022/11/27 11:51:44;;;;;;;1.63;1.00;;;8.20;96.40;;;;;;20175585;29;20041;-59
2022/11/27 12:02:05;;;;;;;2.40;1.10;;;8.30;95.50;;;;;;20175932;29;20044;-58
2022/11/27 12:12:34;;;;;;;2.15;1.35;;;8.30;96.30;;;;;;20176018;29;20044;-59
2022/11/27 12:23:14;;;;;;;1.70;1.40;;;8.60;96.30;;;;;;20164769;23;20050;-52
2022/11/27 12:33:41;;;;;;;2.58;1.40;;;8.30;96.60;;;;;;20172801;23;20054;-62
2022/11/27 12:43:58;;;;;;;2.97;1.80;;;7.90;96.70;;;;;;20077277;23;20057;-64
2022/11/27 12:54:13;;;;;;;2.55;1.60;;;7.20;97.90;;;;;;20103972;24;20145;-63
2022/11/27 13:04:50;;;;;;;2.50;1.40;;;6.40;98.20;;;;;;20184081;23;20092;-60
2022/11/27 13:15:14;;;;;;;4.05;1.60;;;6.10;99.90;;;;;;20193137;23;20500;-66
2022/11/27 13:25:17;;;;;;;2.08;1.40;;;6.00;99.90;;;;;;20126498;23;20393;-66
2022/11/27 13:35:42;;;;;;;2.85;1.80;;;5.70;99.90;;;;;;20112794;23;20049;-56
2022/11/27 13:45:44;;;;;;;2.85;1.83;;;5.10;99.90;;;;;;20199378;23;20122;-57
2022/11/27 13:55:55;;;;;;;3.92;2.20;;;4.80;99.90;;;;;;20253286;23;20453;-59
2022/11/27 14:06:17;;;;;;;5.00;2.30;;;4.30;99.90;;;;;;20201703;23;20164;-57
2022/11/27 14:16:39;;;;;;;4.53;2.20;;;3.90;99.90;;;;;;20198835;23;20125;-57
2022/11/27 14:26:41;;;;;;;5.93;2.42;;;3.60;99.90;;;;;;20142291;23;20066;-57
2022/11/27 14:36:44;;;;;;;3.85;2.17;;;3.20;99.90;;;;;;20249489;23;20050;-56
2022/11/27 14:46:47;;;;;;;4.13;2.63;;;2.90;99.90;;;;;;20249439;23;20062;-57
2022/11/27 14:56:51;;;;;;;5.65;2.72;;;2.50;99.90;;;;;;20234086;23;20435;-55
2022/11/27 15:06:57;;;;;;;5.57;2.50;;;2.00;99.90;;;;;;20241833;23;20046;-58
2022/11/27 15:17:19;;;;;;;5.20;3.10;;;1.40;99.90;;;;;;20161020;23;20106;-58
2022/11/27 15:27:22;;;;;;;4.20;2.80;;;0.70;99.90;;;;;;20197967;23;20061;-54
2022/11/27 15:37:33;;;;;;;4.93;3.03;;;0.40;99.90;;;;;;20247840;23;20413;-59
2022/11/27 15:47:36;;;;;;;9.97;5.00;;;0.00;99.90;;;;;;20244725;23;20053;-56
2022/11/27 15:57:39;;;;;;;4.57;2.97;;;-0.30;99.90;;;;;;20269651;23;20050;-60
2022/11/27 16:07:42;;;;;;;3.83;2.28;;;-0.40;99.90;;;;;;20222519;23;20077;-54
2022/11/27 16:17:54;;;;;;;4.57;2.53;;;-0.60;99.90;;;;;;20164484;23;20581;-56
2022/11/27 16:27:58;;;;;;;4.35;2.47;;;-0.80;99.90;;;;;;20205981;23;20099;-59
2022/11/27 16:38:03;;;;;;;5.35;2.47;;;-0.90;99.90;;;;;;20204688;23;20061;-52
2022/11/27 16:48:06;;;;;;;6.60;3.00;;;-1.00;99.90;;;;;;20230885;23;20453;-59
2022/11/27 16:58:10;;;;;;;3.95;1.73;;;-1.00;99.90;;;;;;20209973;23;20087;-51
2022/11/27 17:08:13;;;;;;;4.70;2.20;;;-1.10;99.90;;;;;;20222409;23;20057;-58
2022/11/27 17:18:31;;;;;;;4.43;2.00;;;-1.20;99.90;;;;;;20239172;23;20058;-53
2022/11/27 17:28:35;;;;;;;5.18;1.80;;;-1.30;99.90;;;;;;20209078;23;20069;-55
2022/11/27 17:38:38;;;;;;;4.35;1.52;;;-1.40;99.90;;;;;;20251976;23;20125;-59
2022/11/27 17:48:42;;;;;;;2.30;1.48;;;-1.50;99.90;;;;;;20238659;23;20121;-53
2022/11/27 17:58:47;;;;;;;3.15;1.63;;;-1.50;99.90;;;;;;20227363;23;20054;-58
2022/11/27 18:08:51;;;;;;;5.63;2.00;;;-1.50;99.90;;;;;;20197208;23;20046;-55
2022/11/27 18:19:27;;;;;;;3.67;1.80;;;-1.60;99.90;;;;;;20178732;23;20060;-52
2022/11/27 18:29:39;;;;;;;3.90;1.88;;;-1.70;99.90;;;;;;20187285;24;20053;31
2022/11/27 18:39:44;;;;;;;4.68;2.50;;;-1.60;99.90;;;;;;20135390;23;20126;-53
2022/11/27 18:49:47;;;;;;;3.33;1.80;;;-1.70;99.90;;;;;;20235807;23;20058;-58
2022/11/27 18:59:50;;;;;;;4.10;1.80;;;-1.80;99.90;;;;;;20263019;23;20126;-55
2022/11/27 19:09:53;;;;;;;3.75;2.17;;;-1.70;99.90;;;;;;20201439;23;20105;-60
2022/11/27 19:19:56;;;;;;;3.42;1.90;;;-1.80;99.90;;;;;;20223030;23;20086;-67
2022/11/27 19:30:16;;;;;;;2.38;1.52;;;-1.80;99.90;;;;;;20139865;23;20057;-56
2022/11/27 19:40:18;;;;;;;1.98;1.00;;;-1.60;99.90;;;;;;20166843;23;1332953;-58
2022/11/27 19:50:21;;;;;;;2.60;1.20;;;-1.40;99.90;;;;;;20232441;23;20069;-54
2022/11/27 20:00:24;;;;;;;1.95;0.95;;;-1.50;99.90;;;;;;20257149;23;20082;-59
2022/11/27 20:10:27;;;;;;;3.70;1.02;;;-1.50;99.90;;;;;;20219165;23;21109;-53
2022/11/27 20:20:29;;;;;;;0.73;0.40;;;-1.50;99.90;;;;;;20251723;23;20045;-59
2022/11/27 20:30:33;;;;;;;0.50;0.30;;;-1.40;99.90;;;;;;20194985;23;20119;-59
2022/11/27 20:40:37;;;;;;;1.55;0.50;;;-1.30;99.90;;;;;;20208996;23;20094;-53
2022/11/27 20:50:40;;;;;;;3.72;0.60;;;-1.30;99.90;;;;;;20221655;23;20061;-59
2022/11/27 21:00:44;;;;;;;0.60;0.30;;;-1.20;99.90;;;;;;20274618;23;20088;-53
2022/11/27 21:10:47;;;;;;;1.75;0.55;;;-0.90;99.90;;;;;;20255439;23;20058;-57
2022/11/27 21:20:49;;;;;;;0.75;0.38;;;-0.80;99.90;;;;;;20161783;23;20050;-60
2022/11/27 21:31:08;;;;;;;1.48;0.40;;;-0.70;99.90;;;;;;20224639;23;20057;-54
2022/11/27 21:41:16;;;;;;;1.13;0.50;;;-0.70;99.90;;;;;;20225402;23;20069;-60
2022/11/27 21:51:20;;;;;;;1.60;0.57;;;-0.60;99.90;;;;;;20215229;23;20049;-57
2022/11/27 22:01:25;;;;;;;1.85;0.60;;;-0.60;99.90;;;;;;20232380;23;20049;-57
2022/11/27 22:11:31;;;;;;;1.10;0.50;;;-0.70;99.90;;;;;;20239934;23;20134;-56
2022/11/27 22:21:44;;;;;;;1.05;0.55;;;-0.90;99.90;;;;;;20169783;23;20066;-55
2022/11/27 22:31:46;;;;;;;1.83;0.70;;;-1.00;99.90;;;;;;20201275;23;20101;-60
2022/11/27 22:41:50;;;;;;;1.13;0.50;;;-1.00;99.90;;;;;;20227860;23;20062;-53
2022/11/27 22:51:52;;;;;;;2.20;0.90;;;-1.00;99.90;;;;;;20228685;23;20058;-58
2022/11/27 23:01:56;;;;;;;1.40;0.70;;;-0.90;99.90;;;;;;20566759;23;20073;-60
2022/11/27 23:11:59;;;;;;;1.47;0.90;;;-0.90;99.90;;;;;;20214144;23;20436;-54
2022/11/27 23:22:01;;;;;;;1.85;1.00;;;-1.00;99.90;;;;;;20185923;23;20473;-55
2022/11/27 23:32:03;;;;;;;2.03;1.23;;;-1.10;99.90;;;;;;20253519;23;20521;-59
2022/11/27 23:42:06;;;;;;;2.53;1.30;;;-1.10;99.90;;;;;;20284269;23;20062;-55
2022/11/27 23:52:08;;;;;;;2.78;1.30;;;-1.20;99.90;;;;;;20206868;23;21155;-59
